createdAt,value
2022-11-30T00:01:14.222Z,14.64
2022-11-30T00:03:42.393Z,14.70
2022-11-30T00:06:13.029Z,14.80
2022-11-30T00:08:41.267Z,14.68
2022-11-30T00:11:10.586Z,14.61
2022-11-30T00:13:38.443Z,14.49
2022-11-30T00:16:07.071Z,14.68
2022-11-30T00:18:35.145Z,14.55
2022-11-30T00:21:03.717Z,14.67
2022-11-30T00:23:34.887Z,14.70
2022-11-30T00:26:03.407Z,14.68
2022-11-30T00:28:33.041Z,14.74
2022-11-30T00:31:01.375Z,14.82
2022-11-30T00:33:29.556Z,14.68
2022-11-30T00:35:58.657Z,14.56
2022-11-30T00:38:26.771Z,14.68
2022-11-30T00:40:56.654Z,14.53
2022-11-30T00:43:24.637Z,14.56
2022-11-30T00:45:52.591Z,14.50
2022-11-30T00:48:20.456Z,14.37
2022-11-30T00:50:49.209Z,14.43
2022-11-30T00:53:17.168Z,14.50
2022-11-30T00:55:45.355Z,14.50
2022-11-30T00:58:15.284Z,14.45
2022-11-30T01:00:43.314Z,14.41
2022-11-30T01:03:11.716Z,14.60
2022-11-30T01:05:41.239Z,14.56
2022-11-30T01:08:10.773Z,14.40
2022-11-30T01:10:40.760Z,14.39
2022-11-30T01:13:08.929Z,14.42
2022-11-30T01:15:39.502Z,14.36
2022-11-30T01:18:07.933Z,14.48
2022-11-30T01:20:36.007Z,14.44
2022-11-30T01:23:04.043Z,14.45
2022-11-30T01:25:31.812Z,14.53
2022-11-30T01:27:59.639Z,14.52
2022-11-30T01:30:27.661Z,14.57
2022-11-30T01:32:57.074Z,14.64
2022-11-30T01:35:24.921Z,14.58
2022-11-30T01:37:52.703Z,14.47
2022-11-30T01:40:20.779Z,14.45
2022-11-30T01:42:48.567Z,14.50
2022-11-30T01:45:16.481Z,14.39
2022-11-30T01:47:47.758Z,14.52
2022-11-30T01:50:21.918Z,14.51
2022-11-30T01:52:52.241Z,14.49
2022-11-30T01:55:22.743Z,14.50
2022-11-30T01:57:53.675Z,14.65
2022-11-30T02:00:22.099Z,14.74
2022-11-30T02:02:56.278Z,14.67
2022-11-30T02:05:26.286Z,14.72
2022-11-30T02:07:54.561Z,14.71
2022-11-30T02:10:25.564Z,14.75
2022-11-30T02:13:14.278Z,14.68
2022-11-30T02:15:49.643Z,14.61
2022-11-30T02:18:22.252Z,14.58
2022-11-30T02:21:07.521Z,14.65
2022-11-30T02:24:01.788Z,14.61
2022-11-30T02:26:56.180Z,14.69
2022-11-30T02:29:26.978Z,14.53
2022-11-30T02:32:00.118Z,14.54
2022-11-30T02:34:29.743Z,14.49
2022-11-30T02:36:58.429Z,14.56
2022-11-30T02:39:26.278Z,14.59
2022-11-30T02:41:54.196Z,14.59
2022-11-30T02:44:25.020Z,14.46
2022-11-30T02:47:00.954Z,14.45
2022-11-30T02:49:34.969Z,14.46
2022-11-30T02:52:03.754Z,14.47
2022-11-30T02:54:31.522Z,14.49
2022-11-30T02:56:59.920Z,14.60
2022-11-30T02:59:29.309Z,14.68
2022-11-30T03:01:57.614Z,14.63
2022-11-30T03:04:25.489Z,14.68
2022-11-30T03:06:53.422Z,14.68
2022-11-30T03:09:21.331Z,14.63
2022-11-30T03:11:49.236Z,14.46
2022-11-30T03:14:17.008Z,14.42
2022-11-30T03:16:46.197Z,14.45
2022-11-30T03:19:14.262Z,14.41
2022-11-30T03:21:42.123Z,14.15
2022-11-30T03:24:09.993Z,14.58
2022-11-30T03:26:37.803Z,14.44
2022-11-30T03:29:05.771Z,14.20
2022-11-30T03:31:33.682Z,14.25
2022-11-30T03:34:02.993Z,14.16
2022-11-30T03:36:30.884Z,14.09
2022-11-30T03:38:58.962Z,14.26
2022-11-30T03:41:26.832Z,14.18
2022-11-30T03:43:54.730Z,14.27
2022-11-30T03:46:22.774Z,14.37
2022-11-30T03:48:50.698Z,14.43
2022-11-30T03:51:19.894Z,14.41
2022-11-30T03:53:47.848Z,14.36
2022-11-30T03:56:16.734Z,14.28
2022-11-30T03:58:44.639Z,14.24
2022-11-30T04:01:14.124Z,14.19
2022-11-30T04:03:42.390Z,13.95
2022-11-30T04:06:11.978Z,14.01
2022-11-30T04:08:41.815Z,14.07
2022-11-30T04:11:10.139Z,14.17
2022-11-30T04:13:39.447Z,14.13
2022-11-30T04:16:08.104Z,14.22
2022-11-30T04:18:37.224Z,14.18
2022-11-30T04:21:05.627Z,14.18
2022-11-30T04:23:35.733Z,14.04
2022-11-30T04:26:05.738Z,14.25
2022-11-30T04:28:33.826Z,14.26
2022-11-30T04:31:02.635Z,14.22
2022-11-30T04:33:30.996Z,14.18
2022-11-30T04:36:00.444Z,14.16
2022-11-30T04:38:29.659Z,14.06
2022-11-30T04:40:57.700Z,14.03
2022-11-30T04:43:27.233Z,13.96
2022-11-30T04:45:55.115Z,14.01
2022-11-30T04:48:22.943Z,14.03
2022-11-30T04:50:50.788Z,13.71
2022-11-30T04:53:18.587Z,13.73
2022-11-30T04:55:46.571Z,13.78
2022-11-30T04:58:14.594Z,13.70
2022-11-30T05:00:43.784Z,13.80
2022-11-30T05:03:11.635Z,13.72
2022-11-30T05:05:39.458Z,13.71
2022-11-30T05:08:07.454Z,13.60
2022-11-30T05:10:35.279Z,13.81
2022-11-30T05:13:03.071Z,13.85
2022-11-30T05:15:31.066Z,13.71
2022-11-30T05:18:01.498Z,13.77
2022-11-30T05:20:30.001Z,13.72
2022-11-30T05:22:58.882Z,13.64
2022-11-30T05:25:26.964Z,13.69
2022-11-30T05:27:54.795Z,13.78
2022-11-30T05:30:22.939Z,13.94
2022-11-30T05:32:51.147Z,13.88
2022-11-30T05:35:20.508Z,13.93
2022-11-30T05:37:48.762Z,13.92
2022-11-30T05:40:16.648Z,13.86
2022-11-30T05:42:44.631Z,13.81
2022-11-30T05:45:12.689Z,13.96
2022-11-30T05:47:40.961Z,13.98
2022-11-30T05:50:09.767Z,14.01
2022-11-30T05:52:39.082Z,13.80
2022-11-30T05:55:07.503Z,13.94
2022-11-30T05:57:37.094Z,13.78
2022-11-30T06:00:05.968Z,13.83
2022-11-30T06:02:39.599Z,13.66
2022-11-30T06:05:08.511Z,13.83
2022-11-30T06:07:36.362Z,13.76
2022-11-30T06:10:06.207Z,13.74
2022-11-30T06:12:34.113Z,13.79
2022-11-30T06:15:02.029Z,13.78
2022-11-30T06:17:29.905Z,13.84
2022-11-30T06:19:58.595Z,13.91
2022-11-30T06:22:26.552Z,13.85
2022-11-30T06:24:55.266Z,14.02
2022-11-30T06:27:24.649Z,13.98
2022-11-30T06:29:52.968Z,13.93
2022-11-30T06:32:20.794Z,13.81
2022-11-30T06:34:48.885Z,13.69
2022-11-30T06:37:19.889Z,13.83
2022-11-30T06:40:06.081Z,13.70
2022-11-30T06:42:37.136Z,13.83
2022-11-30T06:45:06.385Z,13.75
2022-11-30T06:47:34.404Z,13.69
2022-11-30T06:50:02.245Z,13.74
2022-11-30T06:52:31.498Z,13.70
2022-11-30T06:54:59.326Z,13.73
2022-11-30T06:57:28.210Z,13.87
2022-11-30T06:59:58.000Z,13.80
2022-11-30T07:02:26.015Z,13.70
2022-11-30T07:04:53.941Z,13.48
2022-11-30T07:07:22.313Z,13.67
2022-11-30T07:09:51.013Z,13.64
2022-11-30T07:12:19.062Z,13.60
2022-11-30T07:14:47.328Z,13.86
2022-11-30T07:17:16.809Z,14.01
2022-11-30T07:19:44.706Z,14.01
2022-11-30T07:22:12.602Z,13.90
2022-11-30T07:24:58.053Z,13.92
2022-11-30T07:27:26.327Z,13.98
2022-11-30T07:29:54.127Z,13.88
2022-11-30T07:32:23.813Z,13.78
2022-11-30T07:34:51.705Z,14.05
2022-11-30T07:37:19.561Z,14.10
2022-11-30T07:39:47.444Z,14.06
2022-11-30T07:42:17.011Z,14.20
2022-11-30T07:44:45.310Z,14.26
2022-11-30T07:47:13.389Z,14.21
2022-11-30T07:49:42.742Z,14.37
2022-11-30T07:52:10.833Z,14.38
2022-11-30T07:54:38.657Z,14.41
2022-11-30T07:57:06.552Z,14.31
2022-11-30T07:59:34.516Z,14.48
2022-11-30T08:02:02.521Z,14.42
2022-11-30T08:04:30.548Z,14.40
2022-11-30T08:07:00.267Z,14.57
2022-11-30T08:09:28.133Z,14.47
2022-11-30T08:11:55.998Z,14.38
2022-11-30T08:14:23.855Z,14.54
2022-11-30T08:16:51.800Z,14.87
2022-11-30T08:19:19.833Z,14.64
2022-11-30T08:21:47.823Z,14.77
2022-11-30T08:24:17.158Z,14.72
2022-11-30T08:26:45.351Z,14.97
2022-11-30T08:29:13.162Z,14.78
2022-11-30T08:31:40.982Z,14.84
2022-11-30T08:34:11.855Z,14.81
2022-11-30T08:36:40.323Z,14.88
2022-11-30T08:39:09.956Z,14.85
2022-11-30T08:41:39.710Z,14.75
2022-11-30T08:44:07.796Z,14.91
2022-11-30T08:46:50.793Z,14.85
2022-11-30T08:49:22.908Z,14.99
2022-11-30T08:54:42.380Z,14.93
2022-11-30T08:57:11.673Z,14.94
2022-11-30T08:59:39.476Z,14.89
2022-11-30T09:02:07.585Z,15.04
2022-11-30T09:04:35.430Z,15.18
2022-11-30T09:07:03.674Z,15.37
2022-11-30T09:09:31.477Z,15.56
2022-11-30T09:11:59.323Z,15.66
2022-11-30T09:14:28.876Z,15.70
2022-11-30T09:16:56.676Z,15.43
2022-11-30T09:19:24.505Z,15.57
2022-11-30T09:21:52.813Z,15.61
2022-11-30T09:24:20.889Z,15.53
2022-11-30T09:26:48.914Z,15.63
2022-11-30T09:29:16.735Z,15.87
2022-11-30T09:31:45.980Z,15.86
2022-11-30T09:34:14.105Z,15.84
2022-11-30T09:36:41.964Z,15.97
2022-11-30T09:39:12.852Z,16.12
2022-11-30T09:42:19.558Z,16.26
2022-11-30T09:44:58.247Z,16.22
2022-11-30T09:47:49.381Z,16.60
2022-11-30T09:50:20.180Z,16.65
2022-11-30T09:52:50.557Z,16.66
2022-11-30T09:55:25.109Z,16.66
2022-11-30T09:57:54.505Z,16.86
2022-11-30T10:00:23.708Z,16.78
2022-11-30T10:02:54.555Z,16.87
2022-11-30T10:05:24.812Z,16.95
2022-11-30T10:08:18.210Z,17.08
2022-11-30T10:10:50.470Z,17.11
2022-11-30T10:13:27.836Z,17.20
2022-11-30T10:16:04.185Z,17.43
2022-11-30T10:18:41.583Z,17.60
2022-11-30T10:21:18.375Z,17.68
2022-11-30T10:23:55.051Z,17.64
2022-11-30T10:26:27.362Z,17.64
2022-11-30T10:28:56.306Z,17.58
2022-11-30T10:31:30.535Z,17.79
2022-11-30T10:34:04.916Z,17.79
2022-11-30T10:36:37.839Z,17.88
2022-11-30T10:39:13.071Z,17.87
2022-11-30T10:41:45.377Z,17.82
2022-11-30T10:44:16.376Z,17.58
2022-11-30T10:46:50.248Z,17.50
2022-11-30T10:49:20.668Z,17.66
2022-11-30T10:51:52.247Z,17.65
2022-11-30T10:54:22.326Z,17.66
2022-11-30T10:56:50.184Z,17.76
2022-11-30T10:59:20.853Z,17.82
2022-11-30T11:01:49.060Z,17.81
2022-11-30T11:04:22.553Z,17.87
2022-11-30T11:06:53.612Z,18.08
2022-11-30T11:09:33.324Z,18.08
2022-11-30T11:12:02.527Z,18.16
2022-11-30T11:14:34.999Z,18.23
2022-11-30T11:17:08.093Z,18.19
2022-11-30T11:19:40.861Z,18.07
2022-11-30T11:22:16.471Z,18.30
2022-11-30T11:24:44.811Z,18.43
2022-11-30T11:27:22.334Z,18.45
2022-11-30T11:29:59.429Z,18.48
2022-11-30T11:32:27.443Z,18.30
2022-11-30T11:34:56.876Z,18.50
2022-11-30T11:37:28.795Z,18.09
2022-11-30T11:40:06.207Z,18.42
2022-11-30T11:42:38.357Z,18.30
2022-11-30T11:45:15.439Z,18.52
2022-11-30T11:47:45.764Z,18.52
2022-11-30T11:51:04.359Z,18.80
2022-11-30T11:53:24.863Z,18.69
2022-11-30T11:55:59.886Z,18.83
2022-11-30T11:58:38.463Z,18.86
2022-11-30T12:01:38.811Z,18.68
2022-11-30T12:04:07.750Z,18.47
2022-11-30T12:06:37.715Z,18.66
2022-11-30T12:09:08.773Z,18.65
2022-11-30T12:11:42.072Z,18.77
2022-11-30T12:14:12.629Z,18.72
2022-11-30T12:17:01.559Z,19.06
2022-11-30T12:19:35.777Z,19.41
2022-11-30T12:22:14.536Z,19.30
2022-11-30T12:24:53.274Z,19.47
2022-11-30T12:27:26.601Z,19.50
2022-11-30T12:30:02.736Z,19.42
2022-11-30T12:32:36.946Z,19.14
2022-11-30T12:35:15.875Z,18.81
2022-11-30T12:37:52.448Z,18.93
2022-11-30T12:40:29.321Z,18.85
2022-11-30T12:43:03.869Z,19.19
2022-11-30T12:45:36.357Z,19.17
2022-11-30T12:48:12.630Z,19.52
2022-11-30T12:50:49.747Z,19.77
2022-11-30T12:53:22.950Z,19.87
2022-11-30T12:55:56.103Z,20.10
2022-11-30T12:58:28.921Z,20.23
2022-11-30T13:01:05.490Z,20.64
2022-11-30T13:03:42.613Z,21.82
2022-11-30T13:06:14.117Z,22.96
2022-11-30T13:08:50.049Z,23.68
2022-11-30T13:11:21.324Z,24.28
2022-11-30T13:13:51.551Z,24.51
2022-11-30T13:16:20.121Z,23.77
2022-11-30T13:18:48.644Z,23.58
2022-11-30T13:21:22.921Z,23.40
2022-11-30T13:23:58.151Z,23.33
2022-11-30T13:26:30.380Z,23.10
2022-11-30T13:29:08.783Z,22.46
2022-11-30T13:31:42.100Z,21.96
2022-11-30T13:34:24.971Z,21.23
2022-11-30T13:36:53.347Z,21.78
2022-11-30T13:39:24.415Z,21.93
2022-11-30T13:42:08.494Z,21.70
2022-11-30T13:44:38.000Z,20.15
2022-11-30T13:47:08.687Z,19.42
2022-11-30T13:49:37.279Z,18.84
2022-11-30T13:52:23.227Z,18.37
2022-11-30T13:54:55.544Z,17.66
2022-11-30T13:58:06.599Z,16.84
2022-11-30T14:00:49.470Z,16.63
2022-11-30T14:03:24.345Z,16.62
2022-11-30T14:05:52.955Z,16.46
2022-11-30T14:08:38.892Z,16.05
2022-11-30T14:11:42.385Z,15.62
2022-11-30T14:14:48.857Z,15.71
2022-11-30T14:17:22.045Z,15.45
2022-11-30T14:19:52.285Z,14.50
2022-11-30T14:22:20.904Z,13.80
2022-11-30T14:24:49.979Z,13.53
2022-11-30T14:27:22.365Z,13.42
2022-11-30T14:29:53.313Z,13.66
2022-11-30T14:32:27.197Z,13.76
2022-11-30T14:35:02.015Z,13.84
2022-11-30T14:37:33.728Z,13.82
2022-11-30T14:40:05.005Z,13.72
2022-11-30T14:42:35.286Z,13.60
2022-11-30T14:45:03.316Z,13.47
2022-11-30T14:47:32.492Z,13.28
2022-11-30T14:50:02.964Z,13.18
2022-11-30T14:52:50.688Z,12.88
2022-11-30T14:55:24.884Z,12.64
2022-11-30T14:58:05.497Z,12.69
2022-11-30T15:00:38.456Z,12.63
2022-11-30T15:03:06.666Z,12.40
2022-11-30T15:05:34.707Z,12.58
2022-11-30T15:08:03.196Z,12.91
2022-11-30T15:10:32.555Z,12.94
2022-11-30T15:13:02.607Z,13.11
2022-11-30T15:15:31.373Z,12.94
2022-11-30T15:18:00.814Z,12.84
2022-11-30T15:20:31.431Z,12.80
2022-11-30T15:23:00.104Z,12.47
2022-11-30T15:25:34.183Z,12.52
2022-11-30T15:28:04.747Z,12.57
2022-11-30T15:30:33.358Z,12.66
2022-11-30T15:33:01.279Z,12.93
2022-11-30T15:35:49.905Z,12.86
2022-11-30T15:38:20.769Z,12.74
2022-11-30T15:40:55.205Z,12.94
2022-11-30T15:43:26.269Z,12.13
2022-11-30T15:45:55.885Z,12.39
2022-11-30T15:48:29.988Z,12.25
2022-11-30T15:50:58.098Z,12.42
2022-11-30T15:53:34.297Z,12.39
2022-11-30T15:56:07.272Z,12.54
2022-11-30T15:58:45.659Z,12.27
2022-11-30T16:01:16.936Z,12.49
2022-11-30T16:04:07.913Z,12.88
2022-11-30T16:06:38.519Z,13.11
2022-11-30T16:09:18.764Z,12.98
2022-11-30T16:11:48.143Z,12.94
2022-11-30T16:14:17.959Z,12.74
2022-11-30T16:16:46.391Z,12.63
2022-11-30T16:19:14.341Z,12.12
2022-11-30T16:21:42.489Z,12.25
2022-11-30T16:24:12.938Z,12.40
2022-11-30T16:26:50.962Z,12.21
2022-11-30T16:29:21.505Z,12.29
2022-11-30T16:31:49.380Z,12.35
2022-11-30T16:34:17.429Z,12.41
2022-11-30T16:36:45.241Z,12.42
2022-11-30T16:39:13.605Z,12.57
2022-11-30T16:41:41.522Z,12.34
2022-11-30T16:44:13.019Z,12.52
2022-11-30T16:46:42.235Z,12.25
2022-11-30T16:49:10.164Z,12.46
2022-11-30T16:51:38.462Z,12.52
2022-11-30T16:54:06.352Z,12.57
2022-11-30T16:56:34.222Z,12.50
2022-11-30T16:59:02.015Z,12.70
2022-11-30T17:01:35.712Z,12.58
2022-11-30T17:04:10.909Z,12.19
2022-11-30T17:06:38.787Z,12.56
2022-11-30T17:09:06.860Z,12.62
2022-11-30T17:11:37.462Z,12.37
2022-11-30T17:14:05.671Z,12.43
2022-11-30T17:16:33.622Z,12.55
2022-11-30T17:19:01.501Z,12.46
2022-11-30T17:21:34.637Z,12.57
2022-11-30T17:24:02.865Z,12.46
2022-11-30T17:26:30.817Z,12.36
2022-11-30T17:28:58.686Z,12.27
2022-11-30T17:31:26.613Z,12.18
2022-11-30T17:33:54.652Z,12.37
2022-11-30T17:36:23.276Z,12.35
2022-11-30T17:38:52.662Z,12.46
2022-11-30T17:41:22.163Z,12.25
2022-11-30T17:43:50.411Z,12.27
2022-11-30T17:46:19.339Z,12.21
2022-11-30T17:48:47.287Z,12.36
2022-11-30T17:51:15.190Z,12.17
2022-11-30T17:53:44.236Z,12.31
2022-11-30T17:56:14.881Z,12.42
2022-11-30T17:58:44.741Z,12.44
2022-11-30T18:01:17.223Z,12.40
2022-11-30T18:03:45.263Z,12.22
2022-11-30T18:06:13.390Z,12.30
2022-11-30T18:08:41.363Z,12.36
2022-11-30T18:11:10.923Z,12.18
2022-11-30T18:13:40.397Z,12.28
2022-11-30T18:16:10.578Z,12.09
2022-11-30T18:18:42.850Z,11.99
2022-11-30T18:21:15.068Z,12.07
2022-11-30T18:23:42.972Z,12.17
2022-11-30T18:26:14.220Z,12.12
2022-11-30T18:28:43.778Z,12.35
2022-11-30T18:31:11.727Z,12.23
2022-11-30T18:33:39.866Z,12.02
2022-11-30T18:36:08.112Z,12.09
2022-11-30T18:38:38.263Z,11.92
2022-11-30T18:41:07.134Z,12.08
2022-11-30T18:43:35.311Z,12.05
2022-11-30T18:46:05.621Z,12.22
2022-11-30T18:48:33.604Z,12.11
2022-11-30T18:51:01.662Z,12.07
2022-11-30T18:53:29.491Z,12.02
2022-11-30T18:56:08.691Z,11.93
2022-11-30T18:58:36.569Z,11.81
2022-11-30T19:01:09.731Z,11.69
2022-11-30T19:03:38.563Z,11.38
2022-11-30T19:06:07.827Z,11.89
2022-11-30T19:08:36.199Z,11.99
2022-11-30T19:11:05.423Z,12.13
2022-11-30T19:13:34.097Z,12.21
2022-11-30T19:16:03.289Z,12.27
2022-11-30T19:18:32.746Z,12.24
2022-11-30T19:21:00.816Z,12.11
2022-11-30T19:23:28.703Z,11.98
2022-11-30T19:26:01.714Z,11.91
2022-11-30T19:28:30.125Z,11.68
2022-11-30T19:30:58.141Z,11.62
2022-11-30T19:33:26.617Z,11.68
2022-11-30T19:36:00.849Z,11.59
2022-11-30T19:38:28.701Z,11.38
2022-11-30T19:40:56.534Z,11.62
2022-11-30T19:43:24.373Z,11.60
2022-11-30T19:45:52.203Z,11.80
2022-11-30T19:48:20.134Z,11.81
2022-11-30T19:50:47.895Z,11.84
2022-11-30T19:53:17.088Z,11.96
2022-11-30T19:55:45.036Z,11.43
2022-11-30T19:58:12.924Z,11.60
2022-11-30T20:00:40.784Z,11.67
2022-11-30T20:03:10.439Z,11.77
2022-11-30T20:05:38.326Z,11.68
2022-11-30T20:08:07.165Z,11.57
2022-11-30T20:10:36.398Z,11.71
2022-11-30T20:13:04.446Z,11.67
2022-11-30T20:15:32.313Z,11.66
2022-11-30T20:18:00.464Z,11.65
2022-11-30T20:20:28.257Z,11.44
2022-11-30T20:22:56.043Z,11.72
2022-11-30T20:25:24.061Z,11.80
2022-11-30T20:27:53.345Z,11.69
2022-11-30T20:30:21.425Z,11.69
2022-11-30T20:32:49.232Z,11.80
2022-11-30T20:35:17.272Z,11.71
2022-11-30T20:37:45.116Z,11.76
2022-11-30T20:40:13.465Z,11.84
2022-11-30T20:42:44.649Z,11.84
2022-11-30T20:45:13.857Z,11.91
2022-11-30T20:47:41.729Z,11.86
2022-11-30T20:50:10.545Z,11.72
2022-11-30T20:52:38.504Z,11.86
2022-11-30T20:55:06.988Z,11.81
2022-11-30T20:57:35.042Z,12.16
2022-11-30T21:00:07.632Z,12.47
2022-11-30T21:02:40.854Z,12.49
2022-11-30T21:05:09.211Z,11.97
2022-11-30T21:07:37.153Z,11.87
2022-11-30T21:10:05.272Z,11.71
2022-11-30T21:12:33.226Z,11.74
2022-11-30T21:15:01.074Z,11.41
2022-11-30T21:17:28.983Z,11.38
2022-11-30T21:19:58.426Z,11.61
2022-11-30T21:22:27.247Z,11.69
2022-11-30T21:24:55.417Z,11.52
2022-11-30T21:27:23.205Z,11.53
2022-11-30T21:29:51.204Z,11.53
2022-11-30T21:32:18.992Z,11.41
2022-11-30T21:34:47.274Z,11.31
2022-11-30T21:37:16.668Z,11.31
2022-11-30T21:39:44.617Z,11.41
2022-11-30T21:42:12.674Z,11.09
2022-11-30T21:44:40.495Z,11.26
2022-11-30T21:47:08.693Z,11.21
2022-11-30T21:49:36.450Z,11.18
2022-11-30T21:52:04.497Z,11.22
2022-11-30T21:54:33.644Z,11.41
2022-11-30T21:57:01.479Z,11.07
2022-11-30T21:59:30.338Z,11.25
2022-11-30T22:01:58.133Z,11.31
2022-11-30T22:04:25.994Z,11.15
2022-11-30T22:06:53.813Z,11.42
2022-11-30T22:09:21.759Z,11.32
2022-11-30T22:11:50.937Z,11.43
2022-11-30T22:14:18.739Z,11.30
2022-11-30T22:16:46.816Z,11.42
2022-11-30T22:19:14.743Z,11.41
2022-11-30T22:21:48.299Z,11.17
2022-11-30T22:24:17.904Z,11.05
2022-11-30T22:26:46.711Z,11.15
2022-11-30T22:29:17.878Z,10.87
2022-11-30T22:31:47.641Z,10.99
2022-11-30T22:34:15.680Z,11.08
2022-11-30T22:36:44.911Z,11.28
2022-11-30T22:39:14.027Z,11.34
2022-11-30T22:41:42.737Z,11.33
2022-11-30T22:44:11.362Z,11.41
2022-11-30T22:46:40.861Z,11.48
2022-11-30T22:49:10.317Z,11.49
2022-11-30T22:51:38.771Z,11.54
2022-11-30T22:54:07.413Z,11.51
2022-11-30T22:56:36.762Z,11.62
2022-11-30T22:59:06.269Z,11.49
2022-11-30T23:01:35.633Z,11.47
2022-11-30T23:04:06.601Z,11.42
2022-11-30T23:06:35.208Z,11.30
2022-11-30T23:09:03.803Z,11.27
2022-11-30T23:11:32.042Z,11.22
2022-11-30T23:13:59.891Z,11.40
2022-11-30T23:16:28.223Z,11.42
2022-11-30T23:18:57.804Z,11.42
2022-11-30T23:21:30.254Z,11.28
2022-11-30T23:24:00.490Z,11.27
2022-11-30T23:26:30.224Z,11.42
2022-11-30T23:29:00.360Z,11.43
2022-11-30T23:31:34.145Z,11.44
2022-11-30T23:34:05.855Z,11.50
2022-11-30T23:36:35.783Z,11.53
2022-11-30T23:39:05.479Z,11.43
2022-11-30T23:41:33.453Z,11.48
2022-11-30T23:44:01.277Z,11.38
2022-11-30T23:46:29.408Z,11.21
2022-11-30T23:48:57.959Z,11.30
2022-11-30T23:51:26.294Z,11.17
2022-11-30T23:53:55.529Z,11.10
2022-11-30T23:56:24.603Z,11.09
2022-11-30T23:58:52.681Z,11.04
